sensor_id;sensor_type;location;lat;lon;timestamp;P1;durP1;ratioP1;P2;durP2;ratioP2
70322;SDS011;57735;56.264;43.898;2023-09-08T00:02:12;2.17;;;0.98;;
70322;SDS011;57735;56.264;43.898;2023-09-08T00:04:43;3.63;;;1.20;;
70322;SDS011;57735;56.264;43.898;2023-09-08T00:07:16;2.88;;;1.00;;
70322;SDS011;57735;56.264;43.898;2023-09-08T00:09:47;2.33;;;1.30;;
70322;SDS011;57735;56.264;43.898;2023-09-08T00:12:21;2.70;;;1.42;;
70322;SDS011;57735;56.264;43.898;2023-09-08T00:14:51;4.50;;;1.17;;
70322;SDS011;57735;56.264;43.898;2023-09-08T00:17:22;2.97;;;1.25;;
70322;SDS011;57735;56.264;43.898;2023-09-08T00:19:56;3.13;;;1.30;;
70322;SDS011;57735;56.264;43.898;2023-09-08T00:22:28;3.28;;;1.45;;
70322;SDS011;57735;56.264;43.898;2023-09-08T00:24:58;5.35;;;1.40;;
70322;SDS011;57735;56.264;43.898;2023-09-08T00:27:30;1.85;;;1.00;;
70322;SDS011;57735;56.264;43.898;2023-09-08T00:30:01;4.00;;;1.45;;
70322;SDS011;57735;56.264;43.898;2023-09-08T00:32:37;2.20;;;1.15;;
70322;SDS011;57735;56.264;43.898;2023-09-08T00:35:10;1.55;;;1.17;;
70322;SDS011;57735;56.264;43.898;2023-09-08T00:37:43;2.92;;;1.42;;
70322;SDS011;57735;56.264;43.898;2023-09-08T00:40:14;3.90;;;1.35;;
70322;SDS011;57735;56.264;43.898;2023-09-08T00:42:45;3.75;;;1.50;;
70322;SDS011;57735;56.264;43.898;2023-09-08T00:45:15;2.53;;;1.52;;
70322;SDS011;57735;56.264;43.898;2023-09-08T00:47:46;4.55;;;1.48;;
70322;SDS011;57735;56.264;43.898;2023-09-08T00:50:17;2.42;;;1.60;;
70322;SDS011;57735;56.264;43.898;2023-09-08T00:52:48;2.58;;;1.60;;
70322;SDS011;57735;56.264;43.898;2023-09-08T00:55:19;3.80;;;1.60;;
70322;SDS011;57735;56.264;43.898;2023-09-08T00:57:50;3.92;;;1.63;;
70322;SDS011;57735;56.264;43.898;2023-09-08T01:00:21;3.95;;;1.70;;
70322;SDS011;57735;56.264;43.898;2023-09-08T01:02:51;3.75;;;1.60;;
70322;SDS011;57735;56.264;43.898;2023-09-08T01:05:22;1.85;;;1.27;;
70322;SDS011;57735;56.264;43.898;2023-09-08T01:07:53;3.83;;;1.15;;
70322;SDS011;57735;56.264;43.898;2023-09-08T01:10:25;3.75;;;1.67;;
70322;SDS011;57735;56.264;43.898;2023-09-08T01:12:59;5.00;;;1.38;;
70322;SDS011;57735;56.264;43.898;2023-09-08T01:15:30;2.55;;;1.30;;
70322;SDS011;57735;56.264;43.898;2023-09-08T01:18:01;4.40;;;1.45;;
70322;SDS011;57735;56.264;43.898;2023-09-08T01:20:41;1.25;;;1.00;;
70322;SDS011;57735;56.264;43.898;2023-09-08T01:26:15;1.98;;;1.38;;
70322;SDS011;57735;56.264;43.898;2023-09-08T01:28:52;3.17;;;1.17;;
70322;SDS011;57735;56.264;43.898;2023-09-08T01:31:24;1.67;;;1.10;;
70322;SDS011;57735;56.264;43.898;2023-09-08T01:33:58;3.85;;;1.60;;
70322;SDS011;57735;56.264;43.898;2023-09-08T01:36:32;2.80;;;1.10;;
70322;SDS011;57735;56.264;43.898;2023-09-08T01:39:04;5.80;;;1.60;;
70322;SDS011;57735;56.264;43.898;2023-09-08T01:41:35;5.20;;;1.17;;
70322;SDS011;57735;56.264;43.898;2023-09-08T01:44:06;1.42;;;1.17;;
70322;SDS011;57735;56.264;43.898;2023-09-08T01:46:40;3.45;;;1.38;;
70322;SDS011;57735;56.264;43.898;2023-09-08T01:49:13;2.95;;;1.25;;
70322;SDS011;57735;56.264;43.898;2023-09-08T01:51:44;2.50;;;1.50;;
70322;SDS011;57735;56.264;43.898;2023-09-08T01:54:15;3.60;;;1.33;;
70322;SDS011;57735;56.264;43.898;2023-09-08T01:56:46;2.97;;;1.10;;
70322;SDS011;57735;56.264;43.898;2023-09-08T01:59:17;3.13;;;1.00;;
70322;SDS011;57735;56.264;43.898;2023-09-08T02:01:47;1.95;;;1.10;;
70322;SDS011;57735;56.264;43.898;2023-09-08T02:04:25;1.52;;;1.00;;
70322;SDS011;57735;56.264;43.898;2023-09-08T02:07:01;2.28;;;1.05;;
70322;SDS011;57735;56.264;43.898;2023-09-08T02:09:36;2.15;;;1.00;;
70322;SDS011;57735;56.264;43.898;2023-09-08T02:12:08;2.05;;;1.13;;
70322;SDS011;57735;56.264;43.898;2023-09-08T02:14:39;2.38;;;1.02;;
70322;SDS011;57735;56.264;43.898;2023-09-08T02:17:10;1.73;;;0.90;;
70322;SDS011;57735;56.264;43.898;2023-09-08T02:19:43;6.15;;;1.50;;
70322;SDS011;57735;56.264;43.898;2023-09-08T02:22:17;1.93;;;1.20;;
70322;SDS011;57735;56.264;43.898;2023-09-08T02:24:50;1.55;;;1.10;;
70322;SDS011;57735;56.264;43.898;2023-09-08T02:27:22;4.28;;;1.00;;
70322;SDS011;57735;56.264;43.898;2023-09-08T02:29:53;1.77;;;1.33;;
70322;SDS011;57735;56.264;43.898;2023-09-08T02:32:25;2.47;;;1.35;;
70322;SDS011;57735;56.264;43.898;2023-09-08T02:34:58;3.50;;;1.30;;
70322;SDS011;57735;56.264;43.898;2023-09-08T02:37:29;2.13;;;1.40;;
70322;SDS011;57735;56.264;43.898;2023-09-08T02:40:00;8.75;;;1.80;;
70322;SDS011;57735;56.264;43.898;2023-09-08T02:42:34;3.13;;;1.77;;
70322;SDS011;57735;56.264;43.898;2023-09-08T02:45:07;2.85;;;1.45;;
70322;SDS011;57735;56.264;43.898;2023-09-08T02:47:38;3.92;;;1.55;;
70322;SDS011;57735;56.264;43.898;2023-09-08T02:50:09;3.88;;;1.75;;
70322;SDS011;57735;56.264;43.898;2023-09-08T02:52:40;2.92;;;1.70;;
70322;SDS011;57735;56.264;43.898;2023-09-08T02:55:11;5.10;;;1.25;;
70322;SDS011;57735;56.264;43.898;2023-09-08T02:57:41;3.42;;;1.73;;
70322;SDS011;57735;56.264;43.898;2023-09-08T03:00:12;4.85;;;1.95;;
70322;SDS011;57735;56.264;43.898;2023-09-08T03:02:44;3.70;;;1.60;;
70322;SDS011;57735;56.264;43.898;2023-09-08T03:05:15;4.10;;;1.67;;
70322;SDS011;57735;56.264;43.898;2023-09-08T03:07:48;2.50;;;1.63;;
70322;SDS011;57735;56.264;43.898;2023-09-08T03:10:19;1.70;;;1.30;;
70322;SDS011;57735;56.264;43.898;2023-09-08T03:12:50;2.85;;;1.35;;
70322;SDS011;57735;56.264;43.898;2023-09-08T03:15:21;2.65;;;1.50;;
70322;SDS011;57735;56.264;43.898;2023-09-08T03:17:52;8.70;;;2.08;;
70322;SDS011;57735;56.264;43.898;2023-09-08T03:20:27;7.50;;;2.28;;
70322;SDS011;57735;56.264;43.898;2023-09-08T03:22:58;7.88;;;2.33;;
70322;SDS011;57735;56.264;43.898;2023-09-08T03:25:29;3.97;;;1.98;;
70322;SDS011;57735;56.264;43.898;2023-09-08T03:28:02;6.80;;;2.13;;
70322;SDS011;57735;56.264;43.898;2023-09-08T03:30:33;6.40;;;2.03;;
70322;SDS011;57735;56.264;43.898;2023-09-08T03:33:04;2.17;;;1.42;;
70322;SDS011;57735;56.264;43.898;2023-09-08T03:35:37;3.25;;;1.35;;
70322;SDS011;57735;56.264;43.898;2023-09-08T03:38:10;3.30;;;1.70;;
70322;SDS011;57735;56.264;43.898;2023-09-08T03:40:41;3.90;;;1.77;;
70322;SDS011;57735;56.264;43.898;2023-09-08T03:43:12;3.85;;;1.70;;
70322;SDS011;57735;56.264;43.898;2023-09-08T03:45:43;4.45;;;2.03;;
70322;SDS011;57735;56.264;43.898;2023-09-08T03:48:17;3.90;;;1.90;;
70322;SDS011;57735;56.264;43.898;2023-09-08T03:50:48;15.65;;;2.88;;
70322;SDS011;57735;56.264;43.898;2023-09-08T03:53:19;4.88;;;2.15;;
70322;SDS011;57735;56.264;43.898;2023-09-08T03:55:50;5.43;;;2.40;;
70322;SDS011;57735;56.264;43.898;2023-09-08T03:58:21;7.57;;;1.85;;
70322;SDS011;57735;56.264;43.898;2023-09-08T04:00:51;3.15;;;1.70;;
70322;SDS011;57735;56.264;43.898;2023-09-08T04:03:22;7.07;;;1.63;;
70322;SDS011;57735;56.264;43.898;2023-09-08T04:05:53;2.10;;;1.50;;
70322;SDS011;57735;56.264;43.898;2023-09-08T04:08:24;4.75;;;1.58;;
70322;SDS011;57735;56.264;43.898;2023-09-08T04:10:55;4.68;;;1.40;;
70322;SDS011;57735;56.264;43.898;2023-09-08T04:13:25;3.33;;;1.63;;
70322;SDS011;57735;56.264;43.898;2023-09-08T04:15:56;6.22;;;1.60;;
70322;SDS011;57735;56.264;43.898;2023-09-08T04:18:27;3.20;;;1.80;;
70322;SDS011;57735;56.264;43.898;2023-09-08T04:20:58;3.40;;;1.58;;
70322;SDS011;57735;56.264;43.898;2023-09-08T04:23:29;1.88;;;1.25;;
70322;SDS011;57735;56.264;43.898;2023-09-08T04:25:59;4.97;;;1.33;;
70322;SDS011;57735;56.264;43.898;2023-09-08T04:28:30;3.88;;;1.65;;
70322;SDS011;57735;56.264;43.898;2023-09-08T04:31:01;2.75;;;1.52;;
70322;SDS011;57735;56.264;43.898;2023-09-08T04:33:32;2.80;;;1.60;;
70322;SDS011;57735;56.264;43.898;2023-09-08T04:36:05;2.83;;;1.10;;
70322;SDS011;57735;56.264;43.898;2023-09-08T04:38:36;1.98;;;1.10;;
70322;SDS011;57735;56.264;43.898;2023-09-08T04:41:07;2.72;;;1.83;;
70322;SDS011;57735;56.264;43.898;2023-09-08T04:43:38;2.35;;;1.15;;
70322;SDS011;57735;56.264;43.898;2023-09-08T04:46:08;1.48;;;1.10;;
70322;SDS011;57735;56.264;43.898;2023-09-08T04:48:39;2.17;;;1.63;;
70322;SDS011;57735;56.264;43.898;2023-09-08T04:51:10;1.40;;;1.05;;
70322;SDS011;57735;56.264;43.898;2023-09-08T04:53:41;3.05;;;1.50;;
70322;SDS011;57735;56.264;43.898;2023-09-08T04:56:12;2.00;;;1.50;;
70322;SDS011;57735;56.264;43.898;2023-09-08T04:58:44;3.45;;;1.63;;
70322;SDS011;57735;56.264;43.898;2023-09-08T05:01:14;6.88;;;1.77;;
70322;SDS011;57735;56.264;43.898;2023-09-08T05:03:48;3.75;;;1.52;;
70322;SDS011;57735;56.264;43.898;2023-09-08T05:06:18;4.03;;;1.25;;
70322;SDS011;57735;56.264;43.898;2023-09-08T05:08:49;5.25;;;2.17;;
70322;SDS011;57735;56.264;43.898;2023-09-08T05:11:22;4.25;;;2.10;;
70322;SDS011;57735;56.264;43.898;2023-09-08T05:13:53;6.38;;;1.90;;
70322;SDS011;57735;56.264;43.898;2023-09-08T05:16:24;4.50;;;1.58;;
70322;SDS011;57735;56.264;43.898;2023-09-08T05:19:07;10.40;;;1.92;;
70322;SDS011;57735;56.264;43.898;2023-09-08T05:21:38;5.13;;;2.58;;
70322;SDS011;57735;56.264;43.898;2023-09-08T05:24:10;8.25;;;2.33;;
70322;SDS011;57735;56.264;43.898;2023-09-08T05:26:41;10.93;;;2.67;;
70322;SDS011;57735;56.264;43.898;2023-09-08T05:29:12;4.07;;;1.77;;
70322;SDS011;57735;56.264;43.898;2023-09-08T05:31:46;18.40;;;2.83;;
70322;SDS011;57735;56.264;43.898;2023-09-08T05:34:16;2.72;;;1.80;;
70322;SDS011;57735;56.264;43.898;2023-09-08T05:36:47;6.40;;;2.10;;
70322;SDS011;57735;56.264;43.898;2023-09-08T05:39:18;7.30;;;2.00;;
70322;SDS011;57735;56.264;43.898;2023-09-08T05:41:49;5.30;;;1.40;;
70322;SDS011;57735;56.264;43.898;2023-09-08T05:44:20;3.45;;;1.10;;
70322;SDS011;57735;56.264;43.898;2023-09-08T05:46:51;2.58;;;0.88;;
70322;SDS011;57735;56.264;43.898;2023-09-08T05:49:22;4.13;;;1.10;;
70322;SDS011;57735;56.264;43.898;2023-09-08T05:51:52;1.50;;;0.95;;
70322;SDS011;57735;56.264;43.898;2023-09-08T05:54:26;1.27;;;0.95;;
70322;SDS011;57735;56.264;43.898;2023-09-08T05:56:59;2.40;;;1.10;;
70322;SDS011;57735;56.264;43.898;2023-09-08T05:59:32;3.20;;;1.77;;
70322;SDS011;57735;56.264;43.898;2023-09-08T06:02:03;2.05;;;0.90;;
70322;SDS011;57735;56.264;43.898;2023-09-08T06:04:34;2.38;;;1.27;;
70322;SDS011;57735;56.264;43.898;2023-09-08T06:07:04;3.97;;;1.50;;
70322;SDS011;57735;56.264;43.898;2023-09-08T06:09:35;5.82;;;2.38;;
70322;SDS011;57735;56.264;43.898;2023-09-08T06:12:06;17.23;;;5.53;;
70322;SDS011;57735;56.264;43.898;2023-09-08T06:14:37;13.52;;;5.45;;
70322;SDS011;57735;56.264;43.898;2023-09-08T06:17:10;6.15;;;2.45;;
70322;SDS011;57735;56.264;43.898;2023-09-08T06:19:41;6.05;;;1.90;;
70322;SDS011;57735;56.264;43.898;2023-09-08T06:22:14;6.50;;;2.00;;
70322;SDS011;57735;56.264;43.898;2023-09-08T06:24:45;5.20;;;1.50;;
70322;SDS011;57735;56.264;43.898;2023-09-08T06:27:16;4.18;;;1.98;;
70322;SDS011;57735;56.264;43.898;2023-09-08T06:29:47;3.22;;;1.60;;
70322;SDS011;57735;56.264;43.898;2023-09-08T06:32:18;5.97;;;1.67;;
70322;SDS011;57735;56.264;43.898;2023-09-08T06:34:53;4.88;;;2.00;;
70322;SDS011;57735;56.264;43.898;2023-09-08T06:37:24;6.40;;;1.55;;
70322;SDS011;57735;56.264;43.898;2023-09-08T06:40:00;2.85;;;1.20;;
70322;SDS011;57735;56.264;43.898;2023-09-08T06:42:35;4.43;;;1.17;;
70322;SDS011;57735;56.264;43.898;2023-09-08T06:45:06;4.25;;;1.52;;
70322;SDS011;57735;56.264;43.898;2023-09-08T06:47:37;2.55;;;1.10;;
70322;SDS011;57735;56.264;43.898;2023-09-08T06:50:08;2.90;;;1.40;;
70322;SDS011;57735;56.264;43.898;2023-09-08T06:52:40;7.50;;;1.73;;
70322;SDS011;57735;56.264;43.898;2023-09-08T06:55:11;4.80;;;1.10;;
70322;SDS011;57735;56.264;43.898;2023-09-08T06:57:43;1.35;;;0.77;;
70322;SDS011;57735;56.264;43.898;2023-09-08T07:00:15;4.40;;;0.85;;
70322;SDS011;57735;56.264;43.898;2023-09-08T07:02:47;3.42;;;0.82;;
70322;SDS011;57735;56.264;43.898;2023-09-08T07:05:21;0.98;;;0.60;;
70322;SDS011;57735;56.264;43.898;2023-09-08T07:07:52;1.23;;;0.60;;
70322;SDS011;57735;56.264;43.898;2023-09-08T07:10:28;1.15;;;0.80;;
70322;SDS011;57735;56.264;43.898;2023-09-08T07:13:00;4.07;;;1.00;;
70322;SDS011;57735;56.264;43.898;2023-09-08T07:15:31;1.45;;;0.82;;
70322;SDS011;57735;56.264;43.898;2023-09-08T07:18:05;2.92;;;1.05;;
70322;SDS011;57735;56.264;43.898;2023-09-08T07:20:36;2.55;;;1.05;;
70322;SDS011;57735;56.264;43.898;2023-09-08T07:23:09;2.92;;;0.98;;
70322;SDS011;57735;56.264;43.898;2023-09-08T07:25:44;4.00;;;1.38;;
70322;SDS011;57735;56.264;43.898;2023-09-08T07:28:21;2.55;;;1.42;;
70322;SDS011;57735;56.264;43.898;2023-09-08T07:30:52;7.80;;;1.90;;
70322;SDS011;57735;56.264;43.898;2023-09-08T07:33:23;4.95;;;1.80;;
70322;SDS011;57735;56.264;43.898;2023-09-08T07:35:54;3.58;;;2.42;;
70322;SDS011;57735;56.264;43.898;2023-09-08T07:38:26;9.88;;;3.92;;
70322;SDS011;57735;56.264;43.898;2023-09-08T07:40:56;3.67;;;2.10;;
70322;SDS011;57735;56.264;43.898;2023-09-08T07:43:30;3.60;;;2.28;;
70322;SDS011;57735;56.264;43.898;2023-09-08T07:46:03;6.03;;;3.08;;
70322;SDS011;57735;56.264;43.898;2023-09-08T07:48:36;6.80;;;2.35;;
70322;SDS011;57735;56.264;43.898;2023-09-08T07:51:07;5.05;;;2.60;;
70322;SDS011;57735;56.264;43.898;2023-09-08T07:53:38;6.07;;;2.80;;
70322;SDS011;57735;56.264;43.898;2023-09-08T07:56:11;8.57;;;3.70;;
70322;SDS011;57735;56.264;43.898;2023-09-08T07:58:43;11.33;;;2.77;;
70322;SDS011;57735;56.264;43.898;2023-09-08T08:01:14;15.55;;;3.10;;
70322;SDS011;57735;56.264;43.898;2023-09-08T08:03:45;12.43;;;5.20;;
70322;SDS011;57735;56.264;43.898;2023-09-08T08:06:16;20.90;;;6.38;;
70322;SDS011;57735;56.264;43.898;2023-09-08T08:08:48;5.15;;;2.67;;
70322;SDS011;57735;56.264;43.898;2023-09-08T08:11:18;8.45;;;1.80;;
70322;SDS011;57735;56.264;43.898;2023-09-08T08:13:49;11.43;;;3.55;;
70322;SDS011;57735;56.264;43.898;2023-09-08T08:16:21;9.90;;;3.70;;
70322;SDS011;57735;56.264;43.898;2023-09-08T08:18:54;12.45;;;3.70;;
70322;SDS011;57735;56.264;43.898;2023-09-08T08:21:25;7.20;;;2.72;;
70322;SDS011;57735;56.264;43.898;2023-09-08T08:23:56;4.25;;;1.50;;
70322;SDS011;57735;56.264;43.898;2023-09-08T08:26:27;2.95;;;1.83;;
70322;SDS011;57735;56.264;43.898;2023-09-08T08:29:03;1.50;;;1.15;;
70322;SDS011;57735;56.264;43.898;2023-09-08T08:31:33;3.42;;;1.30;;
70322;SDS011;57735;56.264;43.898;2023-09-08T08:34:05;1.73;;;0.98;;
70322;SDS011;57735;56.264;43.898;2023-09-08T08:36:36;1.65;;;0.70;;
70322;SDS011;57735;56.264;43.898;2023-09-08T08:39:08;1.67;;;0.80;;
70322;SDS011;57735;56.264;43.898;2023-09-08T08:41:41;0.65;;;0.60;;
70322;SDS011;57735;56.264;43.898;2023-09-08T08:44:17;2.53;;;0.93;;
70322;SDS011;57735;56.264;43.898;2023-09-08T08:46:52;5.72;;;1.77;;
70322;SDS011;57735;56.264;43.898;2023-09-08T08:49:26;0.80;;;0.70;;
70322;SDS011;57735;56.264;43.898;2023-09-08T08:52:00;1.60;;;0.55;;
70322;SDS011;57735;56.264;43.898;2023-09-08T08:54:40;3.88;;;1.48;;
70322;SDS011;57735;56.264;43.898;2023-09-08T08:57:13;3.25;;;1.02;;
70322;SDS011;57735;56.264;43.898;2023-09-08T08:59:47;1.98;;;0.95;;
70322;SDS011;57735;56.264;43.898;2023-09-08T09:02:22;3.28;;;0.73;;
70322;SDS011;57735;56.264;43.898;2023-09-08T09:04:58;2.55;;;0.85;;
70322;SDS011;57735;56.264;43.898;2023-09-08T09:07:29;3.85;;;1.25;;
70322;SDS011;57735;56.264;43.898;2023-09-08T09:10:04;2.22;;;0.70;;
70322;SDS011;57735;56.264;43.898;2023-09-08T09:12:38;4.63;;;0.95;;
70322;SDS011;57735;56.264;43.898;2023-09-08T09:15:09;2.45;;;1.27;;
70322;SDS011;57735;56.264;43.898;2023-09-08T09:17:41;2.90;;;1.13;;
70322;SDS011;57735;56.264;43.898;2023-09-08T09:20:16;2.42;;;0.90;;
70322;SDS011;57735;56.264;43.898;2023-09-08T09:22:51;1.63;;;0.80;;
70322;SDS011;57735;56.264;43.898;2023-09-08T09:25:22;0.95;;;0.68;;
70322;SDS011;57735;56.264;43.898;2023-09-08T09:27:56;1.48;;;0.80;;
70322;SDS011;57735;56.264;43.898;2023-09-08T09:30:49;2.22;;;1.23;;
70322;SDS011;57735;56.264;43.898;2023-09-08T09:33:22;7.35;;;1.00;;
70322;SDS011;57735;56.264;43.898;2023-09-08T09:35:54;4.25;;;1.20;;
70322;SDS011;57735;56.264;43.898;2023-09-08T09:38:27;6.70;;;3.30;;
70322;SDS011;57735;56.264;43.898;2023-09-08T09:40:58;4.05;;;1.30;;
70322;SDS011;57735;56.264;43.898;2023-09-08T09:43:29;2.10;;;1.45;;
70322;SDS011;57735;56.264;43.898;2023-09-08T09:46:01;6.05;;;1.05;;
70322;SDS011;57735;56.264;43.898;2023-09-08T09:48:32;1.77;;;1.10;;
70322;SDS011;57735;56.264;43.898;2023-09-08T09:51:19;4.97;;;1.20;;
70322;SDS011;57735;56.264;43.898;2023-09-08T09:53:50;6.10;;;0.80;;
70322;SDS011;57735;56.264;43.898;2023-09-08T09:56:22;0.88;;;0.73;;
70322;SDS011;57735;56.264;43.898;2023-09-08T09:58:53;1.52;;;0.80;;
70322;SDS011;57735;56.264;43.898;2023-09-08T10:01:25;3.88;;;0.63;;
70322;SDS011;57735;56.264;43.898;2023-09-08T10:03:57;1.35;;;0.50;;
70322;SDS011;57735;56.264;43.898;2023-09-08T10:06:30;0.43;;;0.32;;
70322;SDS011;57735;56.264;43.898;2023-09-08T10:09:03;0.93;;;0.50;;
70322;SDS011;57735;56.264;43.898;2023-09-08T10:11:38;0.70;;;0.50;;
70322;SDS011;57735;56.264;43.898;2023-09-08T10:14:19;3.80;;;0.70;;
70322;SDS011;57735;56.264;43.898;2023-09-08T10:16:51;1.80;;;0.75;;
70322;SDS011;57735;56.264;43.898;2023-09-08T10:19:27;1.10;;;0.70;;
70322;SDS011;57735;56.264;43.898;2023-09-08T10:21:59;2.92;;;1.05;;
70322;SDS011;57735;56.264;43.898;2023-09-08T10:24:33;1.27;;;0.75;;
70322;SDS011;57735;56.264;43.898;2023-09-08T10:27:08;3.35;;;0.85;;
70322;SDS011;57735;56.264;43.898;2023-09-08T10:29:40;2.63;;;0.60;;
70322;SDS011;57735;56.264;43.898;2023-09-08T10:32:13;2.88;;;1.33;;
70322;SDS011;57735;56.264;43.898;2023-09-08T10:34:46;2.13;;;0.80;;
70322;SDS011;57735;56.264;43.898;2023-09-08T10:37:19;4.38;;;0.52;;
70322;SDS011;57735;56.264;43.898;2023-09-08T10:39:51;1.02;;;0.70;;
70322;SDS011;57735;56.264;43.898;2023-09-08T10:42:25;1.42;;;0.82;;
70322;SDS011;57735;56.264;43.898;2023-09-08T10:44:59;1.10;;;0.70;;
70322;SDS011;57735;56.264;43.898;2023-09-08T10:47:54;0.60;;;0.52;;
70322;SDS011;57735;56.264;43.898;2023-09-08T10:50:29;1.40;;;0.68;;
70322;SDS011;57735;56.264;43.898;2023-09-08T10:53:11;0.70;;;0.60;;
70322;SDS011;57735;56.264;43.898;2023-09-08T10:55:49;1.27;;;0.47;;
70322;SDS011;57735;56.264;43.898;2023-09-08T10:58:29;0.98;;;0.65;;
70322;SDS011;57735;56.264;43.898;2023-09-08T11:01:01;1.20;;;0.60;;
70322;SDS011;57735;56.264;43.898;2023-09-08T11:06:18;1.88;;;0.80;;
70322;SDS011;57735;56.264;43.898;2023-09-08T11:08:52;5.18;;;1.30;;
70322;SDS011;57735;56.264;43.898;2023-09-08T11:11:25;1.70;;;1.08;;
70322;SDS011;57735;56.264;43.898;2023-09-08T11:13:56;2.83;;;1.40;;
70322;SDS011;57735;56.264;43.898;2023-09-08T11:16:27;2.95;;;1.30;;
70322;SDS011;57735;56.264;43.898;2023-09-08T11:19:01;3.30;;;1.35;;
70322;SDS011;57735;56.264;43.898;2023-09-08T11:21:34;2.85;;;0.93;;
70322;SDS011;57735;56.264;43.898;2023-09-08T11:24:06;3.50;;;1.10;;
70322;SDS011;57735;56.264;43.898;2023-09-08T11:26:40;0.77;;;0.70;;
70322;SDS011;57735;56.264;43.898;2023-09-08T11:29:11;1.30;;;0.50;;
70322;SDS011;57735;56.264;43.898;2023-09-08T11:31:42;0.80;;;0.30;;
70322;SDS011;57735;56.264;43.898;2023-09-08T11:34:12;0.70;;;0.50;;
70322;SDS011;57735;56.264;43.898;2023-09-08T11:36:44;0.93;;;0.52;;
70322;SDS011;57735;56.264;43.898;2023-09-08T11:39:16;1.25;;;0.65;;
70322;SDS011;57735;56.264;43.898;2023-09-08T11:41:46;0.57;;;0.45;;
70322;SDS011;57735;56.264;43.898;2023-09-08T11:44:18;0.60;;;0.45;;
70322;SDS011;57735;56.264;43.898;2023-09-08T11:46:49;0.80;;;0.50;;
70322;SDS011;57735;56.264;43.898;2023-09-08T11:49:20;2.92;;;0.40;;
70322;SDS011;57735;56.264;43.898;2023-09-08T11:51:53;0.75;;;0.43;;
70322;SDS011;57735;56.264;43.898;2023-09-08T11:54:26;0.90;;;0.50;;
70322;SDS011;57735;56.264;43.898;2023-09-08T11:56:59;1.85;;;0.70;;
70322;SDS011;57735;56.264;43.898;2023-09-08T12:02:07;0.90;;;0.50;;
70322;SDS011;57735;56.264;43.898;2023-09-08T12:04:37;1.65;;;0.90;;
70322;SDS011;57735;56.264;43.898;2023-09-08T12:07:12;0.85;;;0.80;;
70322;SDS011;57735;56.264;43.898;2023-09-08T12:09:47;1.35;;;1.17;;
70322;SDS011;57735;56.264;43.898;2023-09-08T12:12:18;3.50;;;1.73;;
70322;SDS011;57735;56.264;43.898;2023-09-08T12:14:51;3.05;;;2.10;;
70322;SDS011;57735;56.264;43.898;2023-09-08T12:17:22;4.40;;;1.75;;
70322;SDS011;57735;56.264;43.898;2023-09-08T12:19:55;2.88;;;1.75;;
70322;SDS011;57735;56.264;43.898;2023-09-08T12:22:28;3.03;;;1.80;;
70322;SDS011;57735;56.264;43.898;2023-09-08T12:25:07;3.25;;;1.58;;
70322;SDS011;57735;56.264;43.898;2023-09-08T12:27:41;5.47;;;1.38;;
70322;SDS011;57735;56.264;43.898;2023-09-08T12:30:16;2.30;;;1.40;;
70322;SDS011;57735;56.264;43.898;2023-09-08T12:32:51;2.35;;;1.67;;
70322;SDS011;57735;56.264;43.898;2023-09-08T12:35:22;2.90;;;1.50;;
70322;SDS011;57735;56.264;43.898;2023-09-08T12:38:00;2.45;;;1.20;;
70322;SDS011;57735;56.264;43.898;2023-09-08T12:40:35;1.40;;;0.98;;
70322;SDS011;57735;56.264;43.898;2023-09-08T12:43:07;2.10;;;1.25;;
70322;SDS011;57735;56.264;43.898;2023-09-08T12:45:38;2.13;;;1.27;;
70322;SDS011;57735;56.264;43.898;2023-09-08T12:48:12;1.97;;;0.80;;
70322;SDS011;57735;56.264;43.898;2023-09-08T12:50:42;0.88;;;0.80;;
70322;SDS011;57735;56.264;43.898;2023-09-08T12:53:13;2.25;;;1.40;;
70322;SDS011;57735;56.264;43.898;2023-09-08T12:55:44;2.42;;;1.13;;
70322;SDS011;57735;56.264;43.898;2023-09-08T12:58:15;2.05;;;1.17;;
70322;SDS011;57735;56.264;43.898;2023-09-08T13:00:49;1.35;;;0.90;;
70322;SDS011;57735;56.264;43.898;2023-09-08T13:03:20;1.67;;;1.02;;
70322;SDS011;57735;56.264;43.898;2023-09-08T13:05:51;1.98;;;1.05;;
70322;SDS011;57735;56.264;43.898;2023-09-08T13:08:22;1.40;;;0.90;;
70322;SDS011;57735;56.264;43.898;2023-09-08T13:10:52;2.13;;;1.20;;
70322;SDS011;57735;56.264;43.898;2023-09-08T13:13:23;1.55;;;0.90;;
70322;SDS011;57735;56.264;43.898;2023-09-08T13:15:55;1.05;;;0.82;;
70322;SDS011;57735;56.264;43.898;2023-09-08T13:18:26;2.22;;;1.20;;
70322;SDS011;57735;56.264;43.898;2023-09-08T13:20:57;2.38;;;1.02;;
70322;SDS011;57735;56.264;43.898;2023-09-08T13:23:29;4.43;;;0.93;;
70322;SDS011;57735;56.264;43.898;2023-09-08T13:26:03;1.58;;;1.00;;
70322;SDS011;57735;56.264;43.898;2023-09-08T13:28:34;2.60;;;1.10;;
70322;SDS011;57735;56.264;43.898;2023-09-08T13:31:06;3.35;;;1.23;;
70322;SDS011;57735;56.264;43.898;2023-09-08T13:33:37;2.00;;;0.80;;
70322;SDS011;57735;56.264;43.898;2023-09-08T13:36:08;1.58;;;0.88;;
70322;SDS011;57735;56.264;43.898;2023-09-08T13:38:39;1.45;;;0.90;;
70322;SDS011;57735;56.264;43.898;2023-09-08T13:41:10;2.13;;;1.10;;
70322;SDS011;57735;56.264;43.898;2023-09-08T13:43:40;3.15;;;1.23;;
70322;SDS011;57735;56.264;43.898;2023-09-08T13:46:11;5.30;;;1.25;;
70322;SDS011;57735;56.264;43.898;2023-09-08T13:48:42;2.47;;;1.15;;
70322;SDS011;57735;56.264;43.898;2023-09-08T13:51:15;3.35;;;1.02;;
70322;SDS011;57735;56.264;43.898;2023-09-08T13:53:46;4.63;;;1.23;;
70322;SDS011;57735;56.264;43.898;2023-09-08T13:56:17;3.10;;;1.13;;
70322;SDS011;57735;56.264;43.898;2023-09-08T13:58:48;6.80;;;2.28;;
70322;SDS011;57735;56.264;43.898;2023-09-08T14:01:19;5.38;;;1.20;;
70322;SDS011;57735;56.264;43.898;2023-09-08T14:03:52;2.33;;;1.15;;
70322;SDS011;57735;56.264;43.898;2023-09-08T14:06:23;4.53;;;1.60;;
70322;SDS011;57735;56.264;43.898;2023-09-08T14:08:55;4.78;;;1.60;;
70322;SDS011;57735;56.264;43.898;2023-09-08T14:11:26;3.53;;;1.20;;
70322;SDS011;57735;56.264;43.898;2023-09-08T14:13:57;5.00;;;1.52;;
70322;SDS011;57735;56.264;43.898;2023-09-08T14:16:28;4.25;;;1.98;;
70322;SDS011;57735;56.264;43.898;2023-09-08T14:18:59;8.57;;;3.05;;
70322;SDS011;57735;56.264;43.898;2023-09-08T14:21:30;5.80;;;2.72;;
70322;SDS011;57735;56.264;43.898;2023-09-08T14:24:02;10.63;;;3.15;;
70322;SDS011;57735;56.264;43.898;2023-09-08T14:26:33;7.32;;;2.75;;
70322;SDS011;57735;56.264;43.898;2023-09-08T14:29:05;12.60;;;2.13;;
70322;SDS011;57735;56.264;43.898;2023-09-08T14:31:36;5.95;;;2.53;;
70322;SDS011;57735;56.264;43.898;2023-09-08T14:34:07;4.10;;;1.73;;
70322;SDS011;57735;56.264;43.898;2023-09-08T14:36:37;4.80;;;2.35;;
70322;SDS011;57735;56.264;43.898;2023-09-08T14:39:08;5.22;;;2.20;;
70322;SDS011;57735;56.264;43.898;2023-09-08T14:41:39;5.88;;;2.33;;
70322;SDS011;57735;56.264;43.898;2023-09-08T14:44:10;5.53;;;2.22;;
70322;SDS011;57735;56.264;43.898;2023-09-08T14:46:43;5.78;;;2.50;;
70322;SDS011;57735;56.264;43.898;2023-09-08T14:49:14;6.55;;;2.78;;
70322;SDS011;57735;56.264;43.898;2023-09-08T14:51:45;4.97;;;2.30;;
70322;SDS011;57735;56.264;43.898;2023-09-08T14:54:16;3.80;;;1.85;;
70322;SDS011;57735;56.264;43.898;2023-09-08T14:56:48;6.10;;;2.00;;
70322;SDS011;57735;56.264;43.898;2023-09-08T14:59:19;4.25;;;2.10;;
70322;SDS011;57735;56.264;43.898;2023-09-08T15:01:52;1.95;;;1.05;;
70322;SDS011;57735;56.264;43.898;2023-09-08T15:04:27;2.03;;;0.73;;
70322;SDS011;57735;56.264;43.898;2023-09-08T15:06:57;1.30;;;0.70;;
70322;SDS011;57735;56.264;43.898;2023-09-08T15:09:28;3.47;;;0.80;;
70322;SDS011;57735;56.264;43.898;2023-09-08T15:11:59;1.98;;;0.70;;